Time;durP1;ratioP1;P1;durP2;ratioP2;P2;SDS_P1;SDS_P2;PMS_P1;PMS_P2;Temp;Humidity;BMP_temperature;BMP_pressure;BME280_temperature;BME280_humidity;BME280_pressure;Samples;Min_cycle;Max_cycle;Signal;HPM_P1;HPM_P2
2021/05/16 00:00:48;;;;;;;5.70;1.50;;;;;;;9.09;89.41;98891.16;5018873;28;20033;-83
2021/05/16 00:03:13;;;;;;;3.10;1.20;;;;;;;9.04;89.74;98891.81;5007465;28;20499;-84
2021/05/16 00:05:39;;;;;;;2.15;1.13;;;;;;;8.98;89.37;98885.44;5023528;28;20095;-84
2021/05/16 00:08:06;;;;;;;4.20;1.25;;;;;;;8.88;89.49;98866.28;5008636;28;20074;-84
2021/05/16 00:10:31;;;;;;;3.83;1.50;;;;;;;8.95;89.33;98877.00;5018582;28;20480;-84
2021/05/16 00:12:58;;;;;;;8.80;3.15;;;;;;;8.92;89.22;98885.47;5011686;28;20056;-84
2021/05/16 00:15:25;;;;;;;5.82;3.25;;;;;;;8.70;89.20;98850.88;5006990;28;20029;-84
2021/05/16 00:17:52;;;;;;;9.68;5.00;;;;;;;8.76;89.16;98854.59;5025227;28;20026;-84
2021/05/16 00:20:21;;;;;;;6.80;3.70;;;;;;;8.82;89.11;98871.69;5017472;28;20051;-84
2021/05/16 00:22:47;;;;;;;8.88;3.03;;;;;;;8.82;89.15;98869.00;5007702;28;20530;-83
2021/05/16 00:25:14;;;;;;;4.55;2.20;;;;;;;8.76;89.43;98866.13;5032760;28;21009;-83
2021/05/16 00:27:41;;;;;;;6.18;2.63;;;;;;;8.80;89.18;98870.00;5022908;28;20029;-84
2021/05/16 00:30:09;;;;;;;5.60;2.00;;;;;;;8.77;89.26;98859.72;5029518;28;20025;-84
2021/05/16 00:32:35;;;;;;;4.88;1.77;;;;;;;8.76;89.24;98865.31;5010356;28;20072;-84
2021/05/16 00:35:00;;;;;;;4.88;1.98;;;;;;;8.69;89.41;98857.28;5011698;28;20042;-85
2021/05/16 00:37:26;;;;;;;8.05;1.85;;;;;;;8.55;88.92;98848.44;5023937;28;20076;-84
2021/05/16 00:39:51;;;;;;;2.35;1.15;;;;;;;8.59;89.15;98859.56;5001210;28;20451;-83
2021/05/16 00:42:17;;;;;;;3.75;1.30;;;;;;;8.46;89.48;98844.34;5023049;28;20083;-84
2021/05/16 00:45:00;;;;;;;4.82;1.40;;;;;;;8.51;88.98;98863.28;5027739;28;20075;-83
2021/05/16 00:47:26;;;;;;;5.60;1.70;;;;;;;8.48;88.98;98858.34;5021657;28;20092;-84
2021/05/16 00:49:54;;;;;;;6.75;1.85;;;;;;;8.40;89.56;98855.06;5027548;28;20112;-84
2021/05/16 00:52:25;;;;;;;9.40;1.90;;;;;;;8.39;88.81;98859.63;5028395;28;20029;-83
2021/05/16 00:54:52;;;;;;;10.77;2.15;;;;;;;8.24;89.08;98840.22;5026985;28;20025;-84
2021/05/16 00:57:18;;;;;;;6.18;1.90;;;;;;;8.32;88.56;98848.84;5008161;28;20061;-84
2021/05/16 00:59:43;;;;;;;8.15;1.60;;;;;;;8.25;88.27;98842.69;5024205;28;20117;-84
2021/05/16 01:02:09;;;;;;;5.45;1.40;;;;;;;8.25;88.61;98841.88;5011500;28;20116;-84
2021/05/16 01:04:36;;;;;;;14.20;2.22;;;;;;;8.30;88.17;98850.09;5025344;28;20016;-85
2021/05/16 01:07:01;;;;;;;4.72;1.42;;;;;;;8.24;88.17;98841.03;5027068;28;20032;-84
2021/05/16 01:09:28;;;;;;;7.28;1.42;;;;;;;8.28;87.74;98847.66;5009499;28;20029;-84
2021/05/16 01:11:54;;;;;;;5.72;1.70;;;;;;;8.24;88.13;98851.75;5006342;28;20455;-84
2021/05/16 01:14:42;;;;;;;6.95;2.15;;;;;;;8.22;88.18;98843.09;5009461;28;20021;-84
2021/05/16 01:17:07;;;;;;;8.75;2.55;;;;;;;8.09;88.63;98827.88;5023978;28;20044;-84
2021/05/16 01:19:33;;;;;;;4.53;1.85;;;;;;;8.02;89.05;98821.72;5029198;28;20092;-84
2021/05/16 01:22:01;;;;;;;7.25;2.17;;;;;;;8.09;88.54;98849.28;5024193;28;20029;-84
2021/05/16 01:24:28;;;;;;;6.85;1.42;;;;;;;7.96;88.86;98832.41;5022907;28;20460;-84
2021/05/16 01:26:54;;;;;;;6.93;1.73;;;;;;;7.90;88.48;98836.75;5020071;28;20477;-84
2021/05/16 01:29:21;;;;;;;3.83;1.33;;;;;;;7.83;88.29;98842.09;5008695;28;20033;-83
2021/05/16 01:31:47;;;;;;;3.88;1.48;;;;;;;7.72;88.32;98838.16;5008938;28;20048;-84
2021/05/16 01:34:13;;;;;;;8.48;2.20;;;;;;;7.70;88.44;98834.06;5014003;28;20124;-84
2021/05/16 01:36:38;;;;;;;6.32;1.60;;;;;;;7.58;88.89;98814.28;5011578;28;20037;-83
2021/05/16 01:39:09;;;;;;;4.15;1.67;;;;;;;7.61;88.78;98836.09;5026686;28;20105;-84
2021/05/16 01:41:34;;;;;;;5.82;1.55;;;;;;;7.53;88.81;98840.81;5025509;28;20033;-84
2021/05/16 01:44:00;;;;;;;4.28;1.60;;;;;;;7.43;89.27;98833.19;5010981;28;20085;-84
2021/05/16 01:46:26;;;;;;;7.65;2.20;;;;;;;7.41;89.03;98840.56;5018700;28;20033;-84
2021/05/16 01:48:51;;;;;;;6.97;2.60;;;;;;;7.36;89.66;98833.19;5027019;28;20033;-83
2021/05/16 01:51:19;;;;;;;7.75;3.20;;;;;;;7.41;90.20;98837.91;5009291;28;20032;-85
2021/05/16 01:53:48;;;;;;;6.22;1.90;;;;;;;7.44;90.14;98840.19;5023270;28;20036;-84
2021/05/16 01:56:37;;;;;;;3.92;1.30;;;;;;;7.31;90.28;98811.56;5008443;28;20030;-84
2021/05/16 01:59:03;;;;;;;4.00;1.52;;;;;;;7.41;90.01;98836.06;5015347;28;20544;-84
2021/05/16 02:01:29;;;;;;;4.20;1.65;;;;;;;7.50;89.62;98850.06;5018751;28;20116;-84
2021/05/16 02:03:55;;;;;;;4.25;1.48;;;;;;;7.57;89.93;98844.72;5010786;28;20435;-83
2021/05/16 02:06:21;;;;;;;6.22;1.50;;;;;;;7.53;89.19;98846.16;5009190;28;20033;-85
2021/05/16 02:08:47;;;;;;;6.97;1.90;;;;;;;7.44;88.91;98827.63;5025467;28;20032;-84
2021/05/16 02:11:12;;;;;;;3.70;1.40;;;;;;;7.49;89.29;98838.56;5007091;28;20339;-84
2021/05/16 02:13:40;;;;;;;7.18;1.80;;;;;;;7.45;89.67;98834.63;5022909;28;20045;-84
2021/05/16 02:16:06;;;;;;;6.65;1.65;;;;;;;7.46;89.00;98832.75;5025116;28;20029;-85
2021/05/16 02:18:32;;;;;;;4.18;1.95;;;;;;;7.52;89.68;98844.53;5011515;28;20100;-83
2021/05/16 02:20:57;;;;;;;3.47;1.30;;;;;;;7.45;89.13;98837.28;5026396;28;20144;-83
2021/05/16 02:23:23;;;;;;;2.83;1.40;;;;;;;7.36;89.18;98835.84;5020822;28;20026;-83
2021/05/16 02:25:52;;;;;;;3.25;1.33;;;;;;;7.30;89.28;98827.81;4999797;28;20032;-84
2021/05/16 02:28:18;;;;;;;4.45;1.63;;;;;;;7.33;89.68;98838.94;5014867;28;20030;-84
2021/05/16 02:30:45;;;;;;;4.63;1.25;;;;;;;7.26;89.53;98828.22;5008712;28;20484;-83
2021/05/16 02:33:10;;;;;;;6.28;1.70;;;;;;;7.37;89.51;98840.16;5006572;28;20095;-84
2021/05/16 02:35:36;;;;;;;6.68;1.40;;;;;;;7.43;89.83;98841.19;5007945;28;20257;-81
2021/05/16 02:38:01;;;;;;;4.38;1.50;;;;;;;7.46;90.15;98840.78;5010650;28;20029;-83
2021/05/16 02:40:27;;;;;;;6.95;1.73;;;;;;;7.60;89.76;98853.19;5012129;28;20423;-85
2021/05/16 02:42:52;;;;;;;5.75;1.65;;;;;;;7.44;89.19;98811.59;5023737;28;20026;-83
2021/05/16 02:45:18;;;;;;;5.03;1.40;;;;;;;7.73;89.50;98847.03;5004710;28;20113;-83
2021/05/16 02:47:43;;;;;;;4.50;1.85;;;;;;;7.66;89.68;98832.81;5009740;28;20037;-81
2021/05/16 02:50:11;;;;;;;4.20;1.42;;;;;;;7.75;89.36;98846.81;5007001;28;20046;-82
2021/05/16 02:52:36;;;;;;;3.38;1.50;;;;;;;7.76;89.44;98837.78;5024428;28;20116;-85
2021/05/16 02:55:03;;;;;;;5.93;1.70;;;;;;;7.75;89.06;98836.91;5021072;28;20060;-82
2021/05/16 02:57:28;;;;;;;5.47;1.50;;;;;;;7.81;89.13;98841.47;5016883;28;20029;-82
2021/05/16 02:59:54;;;;;;;3.85;1.20;;;;;;;7.73;89.48;98833.66;5009730;28;20021;-84
2021/05/16 03:02:19;;;;;;;1.95;1.40;;;;;;;7.70;89.39;98832.22;5005080;28;20033;-84
2021/05/16 03:04:45;;;;;;;3.10;1.50;;;;;;;7.78;89.40;98836.53;5025446;28;20070;-83
2021/05/16 03:07:10;;;;;;;6.03;1.52;;;;;;;7.80;89.69;98847.84;5007674;28;20022;-83
2021/05/16 03:09:36;;;;;;;5.28;1.50;;;;;;;7.78;89.65;98836.53;5006367;28;20021;-84
2021/05/16 03:12:02;;;;;;;3.20;1.50;;;;;;;7.86;89.98;98844.38;5009773;28;20417;-83
2021/05/16 03:14:28;;;;;;;5.18;1.42;;;;;;;7.87;89.93;98855.88;5022874;28;20036;-84
2021/05/16 03:16:54;;;;;;;4.07;1.60;;;;;;;7.89;90.36;98854.66;5022030;28;20022;-84
2021/05/16 03:19:20;;;;;;;5.38;1.70;;;;;;;7.91;89.92;98841.91;5018422;28;20036;-85
2021/05/16 03:21:45;;;;;;;4.97;1.85;;;;;;;8.02;89.78;98859.19;5021218;28;20025;-83
2021/05/16 03:24:11;;;;;;;3.80;1.50;;;;;;;8.07;90.07;98858.53;5023179;28;20057;-83
2021/05/16 03:26:36;;;;;;;5.28;1.50;;;;;;;8.04;89.30;98845.59;5009030;28;20034;-83
2021/05/16 03:29:04;;;;;;;5.10;1.63;;;;;;;8.04;89.70;98845.59;5018890;28;20036;-84
2021/05/16 03:31:29;;;;;;;6.53;1.77;;;;;;;8.04;89.74;98838.38;5007103;28;20025;-84
2021/05/16 03:33:55;;;;;;;7.65;1.52;;;;;;;8.10;89.43;98856.31;5023593;28;20107;-82
2021/05/16 03:36:20;;;;;;;6.03;1.65;;;;;;;8.01;89.61;98844.13;5002725;28;20026;-83
2021/05/16 03:38:46;;;;;;;6.25;1.80;;;;;;;7.96;89.74;98833.22;5018246;28;20083;-85
2021/05/16 03:41:11;;;;;;;3.95;1.50;;;;;;;8.05;89.85;98841.91;5003524;28;20028;-83
2021/05/16 03:43:37;;;;;;;4.82;1.80;;;;;;;8.07;89.98;98846.00;5008162;28;20033;-83
2021/05/16 03:46:02;;;;;;;4.47;1.73;;;;;;;8.07;90.46;98835.31;5005491;28;20116;-84
2021/05/16 03:48:28;;;;;;;2.72;1.70;;;;;;;8.05;90.46;98831.19;5005286;28;20031;-84
2021/05/16 03:50:53;;;;;;;5.30;1.63;;;;;;;8.09;90.81;98843.13;5018936;28;20112;-83
2021/05/16 03:53:19;;;;;;;2.95;1.80;;;;;;;8.15;90.71;98848.47;5019532;28;20099;-85
2021/05/16 03:55:44;;;;;;;4.55;2.28;;;;;;;8.14;90.99;98837.97;5023754;28;20037;-82
2021/05/16 03:58:09;;;;;;;5.10;2.00;;;;;;;8.11;90.94;98841.06;5011884;28;20033;-83
2021/05/16 04:00:35;;;;;;;8.55;2.28;;;;;;;8.11;90.90;98846.41;5024892;28;20029;-83
2021/05/16 04:03:00;;;;;;;4.53;2.30;;;;;;;8.09;90.52;98843.13;5026754;28;20021;-83
2021/05/16 04:05:26;;;;;;;5.60;2.20;;;;;;;8.12;91.44;98845.38;5010480;28;20032;-83
2021/05/16 04:07:51;;;;;;;5.25;2.50;;;;;;;8.11;91.29;98846.41;5014264;28;20053;-84
2021/05/16 04:10:17;;;;;;;5.22;2.35;;;;;;;7.96;91.28;98821.69;5006986;28;20052;-84
2021/05/16 04:12:42;;;;;;;4.20;2.15;;;;;;;8.05;91.57;98848.06;5020835;28;20499;-83
2021/05/16 04:15:08;;;;;;;4.97;2.10;;;;;;;8.06;91.44;98839.00;5020876;28;20036;-84
2021/05/16 04:17:34;;;;;;;6.03;2.35;;;;;;;8.06;91.64;98840.84;5012575;28;20055;-82
2021/05/16 04:19:59;;;;;;;4.50;2.13;;;;;;;8.06;91.59;98838.19;5027532;28;20041;-83
2021/05/16 04:22:24;;;;;;;5.47;2.25;;;;;;;8.10;91.71;98847.44;5025536;28;20070;-84
2021/05/16 04:24:52;;;;;;;7.32;2.60;;;;;;;8.12;91.74;98853.41;5022723;28;20120;-81
2021/05/16 04:27:17;;;;;;;6.13;2.50;;;;;;;7.86;91.88;98811.44;5021921;28;20036;-85
2021/05/16 04:29:44;;;;;;;5.97;2.28;;;;;;;8.07;91.73;98845.16;5012797;28;20048;-85
2021/05/16 04:32:10;;;;;;;5.28;2.20;;;;;;;8.08;91.95;98850.31;5025844;28;20074;-84
2021/05/16 04:34:35;;;;;;;7.95;2.17;;;;;;;8.13;91.70;98855.88;5024261;28;20104;-84
2021/05/16 04:37:01;;;;;;;5.10;2.20;;;;;;;8.09;91.92;98851.16;5020566;28;20040;-84
2021/05/16 04:39:26;;;;;;;4.40;2.33;;;;;;;8.04;91.64;98845.59;5025138;28;20100;-85
2021/05/16 04:41:52;;;;;;;6.32;2.40;;;;;;;8.09;91.81;98859.16;5030733;28;20163;-83
2021/05/16 04:44:17;;;;;;;6.85;2.15;;;;;;;8.04;91.67;98857.09;5009627;28;20810;-83
2021/05/16 04:46:42;;;;;;;6.15;2.15;;;;;;;8.10;91.73;98866.19;5011573;28;20033;-85
2021/05/16 04:49:08;;;;;;;4.22;2.58;;;;;;;7.97;91.55;98858.16;5012961;28;20033;-83
2021/05/16 04:51:34;;;;;;;9.43;2.38;;;;;;;8.10;91.42;98868.88;5012891;28;20029;-83
2021/05/16 04:53:59;;;;;;;8.68;2.83;;;;;;;7.92;91.41;98842.72;5026688;28;20024;-85
2021/05/16 04:56:26;;;;;;;5.43;2.45;;;;;;;8.08;91.51;98873.59;5011327;28;20026;-84
2021/05/16 04:58:52;;;;;;;6.90;2.83;;;;;;;8.05;91.62;98864.13;5001510;28;20025;-84
2021/05/16 05:01:17;;;;;;;4.95;2.42;;;;;;;7.79;91.20;98830.16;5018907;28;20025;-83
2021/05/16 05:03:43;;;;;;;4.78;2.58;;;;;;;7.69;91.21;98824.38;5010054;28;20138;-84
2021/05/16 05:06:08;;;;;;;5.45;3.03;;;;;;;8.01;91.87;98864.72;5010568;28;20064;-83
2021/05/16 05:08:36;;;;;;;4.97;3.25;;;;;;;8.02;91.83;98879.75;5024037;28;20049;-83
2021/05/16 05:11:02;;;;;;;5.57;3.00;;;;;;;8.01;91.91;98872.75;5024392;28;20025;-83
2021/05/16 05:13:28;;;;;;;9.80;3.03;;;;;;;8.01;91.69;98868.22;5013950;28;20396;-84
2021/05/16 05:15:54;;;;;;;6.05;2.53;;;;;;;8.04;91.84;98870.50;5012083;28;20033;-82
2021/05/16 05:18:19;;;;;;;6.40;2.90;;;;;;;8.08;91.55;98878.94;5009721;28;20025;-84
2021/05/16 05:20:46;;;;;;;8.35;2.65;;;;;;;8.05;91.48;98877.50;5020720;28;20075;-84
2021/05/16 05:23:11;;;;;;;10.18;3.47;;;;;;;8.04;91.32;98877.69;5004523;28;20519;-84
2021/05/16 05:25:37;;;;;;;9.02;2.80;;;;;;;8.14;91.42;98891.50;5025932;28;20025;-84
2021/05/16 05:28:02;;;;;;;4.80;2.58;;;;;;;7.97;91.15;98855.47;5025415;28;20029;-83
2021/05/16 05:30:28;;;;;;;7.53;3.40;;;;;;;8.01;91.40;98860.19;5027008;28;20041;-84
2021/05/16 05:32:53;;;;;;;8.05;2.42;;;;;;;8.13;91.26;98887.19;5026547;28;20033;-84
2021/05/16 05:35:19;;;;;;;4.63;2.10;;;;;;;8.19;91.12;98889.03;5010518;28;20061;-84
2021/05/16 05:37:45;;;;;;;6.72;2.42;;;;;;;8.26;91.24;98899.75;5026093;28;20021;-84
2021/05/16 05:40:11;;;;;;;8.25;2.13;;;;;;;8.29;90.33;98902.84;5026800;28;20392;-84
2021/05/16 05:42:37;;;;;;;6.50;2.00;;;;;;;8.25;90.99;98892.75;5014007;28;20032;-84
2021/05/16 05:45:07;;;;;;;4.22;1.70;;;;;;;8.20;90.83;98893.34;5027884;28;20033;-85
2021/05/16 05:47:32;;;;;;;5.18;1.50;;;;;;;8.29;90.61;98904.69;5026750;28;20427;-84
2021/05/16 05:49:58;;;;;;;9.57;2.05;;;;;;;8.31;90.79;98900.78;5022802;28;20117;-84
2021/05/16 05:52:24;;;;;;;4.82;1.80;;;;;;;8.23;90.21;98895.63;5022349;28;20037;-84
2021/05/16 05:54:49;;;;;;;4.63;1.65;;;;;;;8.23;90.46;98898.31;5028306;28;20084;-84
2021/05/16 05:57:15;;;;;;;5.43;1.73;;;;;;;8.24;90.27;98905.31;5026547;28;20032;-84
2021/05/16 05:59:40;;;;;;;4.22;1.60;;;;;;;8.25;90.14;98904.25;5026986;28;20881;-84
2021/05/16 06:02:06;;;;;;;4.60;2.03;;;;;;;8.30;90.31;98912.50;5021238;28;20021;-84
2021/05/16 06:04:31;;;;;;;2.60;1.70;;;;;;;8.30;90.14;98909.81;5025810;28;20492;-84
2021/05/16 06:06:56;;;;;;;5.55;1.52;;;;;;;8.25;90.14;98890.88;5029756;28;20036;-84
2021/05/16 06:09:22;;;;;;;5.03;1.60;;;;;;;8.33;90.36;98901.38;5029003;28;20021;-84
2021/05/16 06:11:47;;;;;;;9.43;2.03;;;;;;;8.46;89.80;98913.16;5010385;28;20030;-84
2021/05/16 06:14:13;;;;;;;5.00;1.80;;;;;;;8.41;89.98;98895.03;5012952;28;20017;-84
2021/05/16 06:16:38;;;;;;;2.83;1.70;;;;;;;8.54;89.49;98904.91;5008860;28;20116;-84
2021/05/16 06:19:04;;;;;;;6.63;1.85;;;;;;;8.62;89.60;98907.34;5007531;28;20535;-84
2021/05/16 06:21:29;;;;;;;5.25;1.80;;;;;;;8.77;89.50;98917.84;5012345;28;20492;-84
2021/05/16 06:26:30;;;;;;;5.60;2.10;;;;;;;8.83;89.37;98914.31;5032366;28;20056;-84
2021/05/16 06:28:56;;;;;;;4.78;1.75;;;;;;;8.86;89.65;98918.44;5030388;28;20510;-84
2021/05/16 06:31:23;;;;;;;6.32;2.00;;;;;;;9.00;89.04;98922.75;5014213;28;20029;-84
2021/05/16 06:33:49;;;;;;;4.97;2.42;;;;;;;9.05;89.36;98922.97;5013496;28;20033;-84
2021/05/16 06:36:14;;;;;;;10.77;2.38;;;;;;;9.07;89.41;98926.22;5026971;28;20021;-84
2021/05/16 06:38:40;;;;;;;9.05;2.30;;;;;;;9.02;89.27;98916.16;5012852;28;20112;-84
2021/05/16 06:41:05;;;;;;;7.60;2.40;;;;;;;9.09;89.24;98920.66;5012166;28;20029;-84
2021/05/16 06:43:31;;;;;;;5.15;2.45;;;;;;;9.18;88.70;98930.97;5011938;28;20033;-84
2021/05/16 06:45:57;;;;;;;3.45;1.73;;;;;;;9.12;88.70;98928.28;5019601;28;20029;-83
2021/05/16 06:48:22;;;;;;;6.88;2.17;;;;;;;9.08;89.07;98927.88;5028139;28;20025;-83
2021/05/16 06:50:47;;;;;;;4.97;2.20;;;;;;;9.25;88.87;98934.41;5009940;28;20470;-83
2021/05/16 06:53:13;;;;;;;5.13;2.40;;;;;;;9.35;88.75;98939.34;5024756;28;20028;-83
2021/05/16 06:55:38;;;;;;;4.32;2.08;;;;;;;9.35;88.36;98939.34;5027721;28;20026;-84
2021/05/16 06:58:04;;;;;;;4.88;2.35;;;;;;;9.42;87.91;98937.47;5003206;28;20124;-83
2021/05/16 07:00:30;;;;;;;7.00;2.75;;;;;;;9.50;88.28;98946.28;5028037;28;20028;-83
2021/05/16 07:02:56;;;;;;;5.07;2.20;;;;;;;9.60;87.94;98958.22;5011661;28;20515;-83
2021/05/16 07:05:21;;;;;;;4.13;2.40;;;;;;;9.65;88.05;98950.34;5011437;28;20010;-84
2021/05/16 07:07:47;;;;;;;3.78;1.90;;;;;;;9.65;87.51;98950.34;5027083;28;20035;-83
2021/05/16 07:10:12;;;;;;;4.00;1.80;;;;;;;9.70;87.34;98955.06;5016644;28;20044;-83
2021/05/16 07:12:38;;;;;;;4.05;1.83;;;;;;;9.49;87.41;98924.00;5037121;28;20029;-83
2021/05/16 07:15:04;;;;;;;3.60;2.00;;;;;;;9.80;87.71;98968.03;5033050;28;20033;-83
2021/05/16 07:17:30;;;;;;;6.20;2.28;;;;;;;9.77;87.46;98952.38;5025645;28;20672;-83
2021/05/16 07:19:55;;;;;;;4.60;1.90;;;;;;;9.90;87.00;98971.09;5006568;28;20099;-83
2021/05/16 07:22:21;;;;;;;6.15;2.13;;;;;;;9.66;86.84;98935.91;5011252;28;20658;-83
2021/05/16 07:24:46;;;;;;;7.18;2.45;;;;;;;9.95;86.62;98971.25;5011350;28;20116;-83
2021/05/16 07:27:11;;;;;;;8.23;2.25;;;;;;;10.07;86.71;98972.19;5009726;28;20109;-82
2021/05/16 07:29:37;;;;;;;6.13;1.90;;;;;;;10.00;86.74;98949.97;5014983;28;20032;-84
2021/05/16 07:32:03;;;;;;;6.00;1.98;;;;;;;10.12;87.07;98967.00;5031427;28;20021;-84
2021/05/16 07:34:28;;;;;;;6.72;1.70;;;;;;;10.15;86.96;98971.13;5035107;28;20037;-82
2021/05/16 07:36:54;;;;;;;4.78;2.03;;;;;;;10.13;86.64;98967.81;5018197;28;20091;-83
2021/05/16 07:39:19;;;;;;;4.68;1.63;;;;;;;10.08;86.30;98963.13;5031134;28;20722;-84
2021/05/16 07:41:45;;;;;;;3.20;1.73;;;;;;;10.18;85.94;98970.69;5012586;28;20079;-82
2021/05/16 07:44:10;;;;;;;5.13;1.98;;;;;;;10.26;85.88;98981.16;5019708;28;20087;-81
2021/05/16 07:46:36;;;;;;;3.58;2.00;;;;;;;10.40;85.17;98989.16;5037401;28;20025;-83
2021/05/16 07:49:02;;;;;;;4.50;1.98;;;;;;;10.51;85.06;98991.16;5032437;28;20026;-83
2021/05/16 07:51:27;;;;;;;4.72;1.92;;;;;;;10.71;83.87;98996.38;5034981;28;20033;-82
2021/05/16 07:53:55;;;;;;;5.55;2.10;;;;;;;10.83;83.51;98991.94;5035344;28;20025;-83
2021/05/16 07:56:21;;;;;;;2.97;1.60;;;;;;;10.91;83.50;98988.94;5013618;28;20033;-84
2021/05/16 07:58:46;;;;;;;3.63;1.77;;;;;;;11.00;82.99;98995.69;5018687;28;20020;-84
2021/05/16 08:01:12;;;;;;;3.13;1.38;;;;;;;11.05;83.00;98995.03;5039507;28;20692;-84
2021/05/16 08:03:37;;;;;;;3.92;1.50;;;;;;;10.94;82.42;98969.69;5019143;28;20488;-84
2021/05/16 08:06:03;;;;;;;3.80;1.40;;;;;;;11.16;82.18;99005.03;5008728;28;20025;-85
2021/05/16 08:08:28;;;;;;;3.92;1.70;;;;;;;11.15;82.31;99006.09;5020863;28;20022;-84
2021/05/16 08:10:53;;;;;;;2.75;1.38;;;;;;;11.07;81.85;98992.13;5032049;28;20446;-83
2021/05/16 08:13:19;;;;;;;2.90;1.52;;;;;;;11.04;82.10;98973.75;5033033;28;20021;-84
2021/05/16 08:15:44;;;;;;;4.20;1.45;;;;;;;11.34;81.46;99012.31;5014659;28;20034;-84
2021/05/16 08:18:10;;;;;;;2.08;1.30;;;;;;;11.40;81.30;99006.03;5022666;28;20037;-83
2021/05/16 08:20:36;;;;;;;2.95;1.48;;;;;;;11.25;80.86;98973.31;5031904;28;20025;-84
2021/05/16 08:23:02;;;;;;;3.67;1.30;;;;;;;11.56;81.09;99014.56;5033780;28;20061;-84
2021/05/16 08:25:27;;;;;;;4.30;1.30;;;;;;;11.57;80.38;99008.97;5032568;28;20111;-84
2021/05/16 08:27:53;;;;;;;2.50;1.30;;;;;;;11.72;80.21;99018.50;5033025;28;20033;-84
2021/05/16 08:30:19;;;;;;;3.65;1.58;;;;;;;11.70;80.18;99024.13;5027572;28;20084;-85
2021/05/16 08:32:45;;;;;;;3.08;1.25;;;;;;;11.62;80.13;99019.88;5015915;28;20079;-84
2021/05/16 08:35:10;;;;;;;3.40;1.40;;;;;;;11.53;80.76;99010.44;5017435;28;20449;-84
2021/05/16 08:37:36;;;;;;;5.80;2.40;;;;;;;11.63;80.70;99021.50;5033523;28;20025;-84
2021/05/16 08:40:03;;;;;;;5.25;1.50;;;;;;;11.82;81.06;99030.38;5025961;28;20032;-85
2021/05/16 08:42:29;;;;;;;2.83;1.50;;;;;;;12.01;80.27;99030.38;5016719;28;20029;-84
2021/05/16 08:44:55;;;;;;;4.15;1.40;;;;;;;12.20;79.84;99037.41;5028041;28;20053;-83
2021/05/16 08:47:21;;;;;;;6.47;2.38;;;;;;;12.29;79.55;99040.59;5036117;28;20445;-84
2021/05/16 08:49:46;;;;;;;6.03;1.58;;;;;;;12.42;78.44;99042.28;5006698;28;20026;-82
2021/05/16 08:52:12;;;;;;;3.20;1.45;;;;;;;12.42;77.65;99029.63;5024707;28;20021;-84
2021/05/16 08:54:37;;;;;;;6.80;1.90;;;;;;;12.51;77.79;99040.88;5039984;28;20127;-84
2021/05/16 08:57:03;;;;;;;4.80;1.70;;;;;;;12.53;77.64;99038.78;5015619;28;20511;-85
2021/05/16 08:59:28;;;;;;;3.30;1.65;;;;;;;12.48;76.80;99038.66;5026720;28;20079;-85
2021/05/16 09:01:58;;;;;;;4.18;1.55;;;;;;;12.63;76.27;99057.09;5035555;28;20032;-84
2021/05/16 09:04:35;;;;;;;4.32;1.60;;;;;;;12.69;76.47;99046.19;5031801;28;20025;-83
2021/05/16 09:07:01;;;;;;;3.83;1.60;;;;;;;12.73;76.53;99041.19;5029251;28;20112;-83
2021/05/16 09:09:37;;;;;;;6.50;1.80;;;;;;;12.87;75.86;99047.19;5035265;28;20021;-83
2021/05/16 09:12:14;;;;;;;6.72;2.85;;;;;;;13.05;75.62;99054.38;5031932;28;20049;-84
2021/05/16 09:14:42;;;;;;;5.53;1.92;;;;;;;13.14;75.18;99059.16;5016446;28;20056;-85
2021/05/16 09:17:29;;;;;;;7.50;1.90;;;;;;;13.24;73.79;99055.88;5032545;28;20029;-84
2021/05/16 09:20:10;;;;;;;5.97;1.77;;;;;;;13.24;73.14;99052.38;5033207;28;20619;-84
2021/05/16 09:22:43;;;;;;;5.05;1.80;;;;;;;13.39;73.46;99058.97;5009535;28;20021;-84
2021/05/16 09:25:13;;;;;;;5.63;1.92;;;;;;;13.40;72.80;99062.47;5015707;28;20112;-85
2021/05/16 09:27:39;;;;;;;7.88;2.35;;;;;;;13.32;72.17;99043.94;5031899;28;20057;-85
2021/05/16 09:30:23;;;;;;;9.60;2.83;;;;;;;13.42;71.79;99044.19;5031856;28;20546;-85
2021/05/16 09:32:53;;;;;;;8.10;2.13;;;;;;;13.55;72.21;99062.00;5031682;28;20395;-84
2021/05/16 09:35:28;;;;;;;7.72;2.03;;;;;;;13.52;71.72;99059.75;5022259;28;20159;-85
2021/05/16 09:38:05;;;;;;;5.15;1.85;;;;;;;13.33;71.03;99040.19;5031592;28;20037;-84
2021/05/16 09:40:43;;;;;;;6.82;1.95;;;;;;;13.38;70.83;99060.00;5023749;28;20036;-85
2021/05/16 09:43:16;;;;;;;7.22;2.20;;;;;;;13.41;70.87;99059.53;5012946;28;20034;-84
2021/05/16 09:46:01;;;;;;;5.20;1.70;;;;;;;13.46;70.31;99058.81;5036592;28;20083;-84
2021/05/16 09:48:47;;;;;;;4.78;1.90;;;;;;;13.55;70.63;99045.81;5035493;28;20033;-85
2021/05/16 09:51:14;;;;;;;6.65;1.42;;;;;;;13.72;70.48;99065.59;5014123;28;20134;-85
2021/05/16 09:54:02;;;;;;;4.65;1.52;;;;;;;13.85;71.12;99064.53;5027143;28;20033;-81
2021/05/16 09:56:36;;;;;;;4.88;1.65;;;;;;;13.87;70.89;99067.00;5014750;28;20132;-83
2021/05/16 09:59:03;;;;;;;;;;;;;;;13.91;70.53;99068.97;5021453;28;20026;-83
2021/05/16 10:01:28;;;;;;;4.65;1.85;;;;;;;13.97;70.86;99072.59;5037513;28;19913;-82
2021/05/16 10:03:56;;;;;;;5.82;1.90;;;;;;;14.13;70.98;99073.72;5037053;28;20029;-83
2021/05/16 10:06:22;;;;;;;6.18;1.60;;;;;;;14.42;71.12;99075.41;5015210;28;20035;-83
2021/05/16 10:08:48;;;;;;;6.03;1.55;;;;;;;14.47;68.95;99080.91;5014667;28;20457;-84
2021/05/16 10:11:25;;;;;;;7.68;1.60;;;;;;;14.52;67.58;99069.34;5037007;28;20075;-83
2021/05/16 10:13:53;;;;;;;4.65;1.25;;;;;;;14.61;66.51;99077.91;5040210;28;20037;-82
2021/05/16 10:16:20;;;;;;;8.57;1.70;;;;;;;14.70;65.60;99071.84;5029842;28;20017;-84
2021/05/16 10:18:46;;;;;;;3.45;1.30;;;;;;;14.75;64.98;99076.53;5020104;28;20439;-83
2021/05/16 10:21:12;;;;;;;3.28;1.60;;;;;;;14.79;66.11;99085.81;5033968;28;20047;-85
2021/05/16 10:23:38;;;;;;;3.58;1.40;;;;;;;14.60;66.71;99084.38;5033867;28;20179;-84
2021/05/16 10:26:24;;;;;;;3.38;1.27;;;;;;;14.48;65.83;99095.22;5017756;28;20196;-85
2021/05/16 10:29:01;;;;;;;3.15;1.40;;;;;;;14.26;65.79;99087.81;5035070;28;20053;-81
2021/05/16 10:31:48;;;;;;;1.60;1.10;;;;;;;14.28;65.96;99096.47;5033308;28;20021;-84
2021/05/16 10:34:29;;;;;;;2.53;1.30;;;;;;;14.47;65.84;99094.41;5033329;28;20035;-84
2021/05/16 10:36:58;;;;;;;4.68;1.30;;;;;;;14.47;65.53;99094.41;5041813;28;20037;-84
2021/05/16 10:39:39;;;;;;;2.83;1.30;;;;;;;14.47;66.73;99090.88;5040337;28;20021;-84
2021/05/16 10:42:14;;;;;;;3.42;1.30;;;;;;;14.41;67.16;99089.97;5037593;28;20040;-84
2021/05/16 10:45:07;;;;;;;3.67;1.13;;;;;;;14.38;67.51;99095.03;5024003;28;20074;-85
2021/05/16 10:47:42;;;;;;;4.45;1.80;;;;;;;14.41;67.33;99111.59;5037004;28;20017;-84
2021/05/16 10:50:11;;;;;;;4.05;2.00;;;;;;;14.43;68.37;99105.94;5035556;28;20079;-83
2021/05/16 10:52:37;;;;;;;7.10;2.05;;;;;;;14.46;69.00;99105.47;5008824;28;20884;-83
2021/05/16 10:55:05;;;;;;;6.68;3.00;;;;;;;14.49;69.29;99104.97;5037548;28;20069;-85
2021/05/16 10:57:38;;;;;;;6.47;2.30;;;;;;;14.59;69.51;99113.31;5022949;28;20480;-84
2021/05/16 11:00:22;;;;;;;;;;;;;;;14.72;69.09;99115.72;5022454;28;20029;-85
2021/05/16 11:03:07;;;;;;;4.10;2.75;;;;;;;14.79;68.09;99118.28;5023252;28;19936;-84
2021/05/16 11:05:52;;;;;;;7.38;3.13;;;;;;;14.89;66.93;99123.84;5020994;28;20103;-83
2021/05/16 11:08:18;;;;;;;4.63;3.00;;;;;;;15.11;66.76;99132.09;5028627;28;20488;-85
2021/05/16 11:10:45;;;;;;;3.58;3.00;;;;;;;15.45;66.08;99128.56;5028357;28;20045;-84
2021/05/16 11:13:20;;;;;;;5.47;3.33;;;;;;;15.57;67.28;99126.59;5028587;28;20037;-84
2021/05/16 11:15:51;;;;;;;7.03;4.25;;;;;;;15.72;67.30;99126.84;5027685;28;20081;-84
2021/05/16 11:18:18;;;;;;;4.65;4.18;;;;;;;15.63;68.42;99124.75;5011461;28;20044;-85
2021/05/16 11:20:50;;;;;;;4.85;4.22;;;;;;;15.43;67.30;99133.38;5028648;28;20060;-84
2021/05/16 11:23:26;;;;;;;5.88;4.28;;;;;;;15.10;67.61;99116.09;5012439;28;20047;-84
2021/05/16 11:25:58;;;;;;;5.90;3.53;;;;;;;15.12;67.16;99127.50;5026253;28;20057;-85
2021/05/16 11:28:25;;;;;;;5.93;4.18;;;;;;;15.02;67.72;99128.13;5022329;28;20026;-85
2021/05/16 11:30:52;;;;;;;5.00;3.90;;;;;;;14.93;68.07;99124.22;5019532;28;20029;-85
2021/05/16 11:33:34;;;;;;;5.25;3.65;;;;;;;14.87;67.54;99120.59;5033303;28;20083;-84
2021/05/16 11:36:08;;;;;;;4.53;3.50;;;;;;;14.99;66.65;99125.94;5017689;28;20042;-84
2021/05/16 11:38:36;;;;;;;4.88;3.03;;;;;;;15.49;67.06;99135.94;5043222;28;20396;-84
2021/05/16 11:41:01;;;;;;;4.05;2.78;;;;;;;15.56;65.01;99100.56;5017038;28;20046;-84
2021/05/16 11:43:31;;;;;;;3.83;2.80;;;;;;;16.10;62.51;99133.31;5042128;28;20037;-79